Portada
METAR-TAF:

METAR-TAF

Aeroports :

Miyazaki, Japó

latitud: 31-52N, longitud: 131-27E, altitud: 6 m

Observació

L'informe es va fer fa 38 minuts, a les 04:00 UTC
Vent 14 kt del Oest
Temperatura 17°C
Humitat 32%
Pressió 1014 hPa
Visibilitat 10 km o més
Escasses núvols a una alçada de 3000 ft
Cel ennuvolat a una alçada de 12000 ft
Cel ennuvolat a una alçada de 14000 ft

METAR: RJFM 230400Z 28014KT 9999 FEW030 BKN120 BKN140 17/00 Q1014

Hora: 13:38 (04:38 UTC)

Pronòstic

L'informe es va fer fa 2 hores i 21 minuts, a les 02:17 UTC
Pronòstic vàlid del 23 a les 02 UTC al 24 a les 06 UTC
Vent 10 kt del Oest
Visibilitat 10 km o més
Escasses núvols a una alçada de 3000 ft
Temporalment
l' 23 a les 04 UTC al 23 a les 10 UTC
Vent 18 kt del Oest amb ràfegues de 28 kt
Evolucionant progressivament
l' 24 a les 00 UTC al 24 a les 03 UTC
Vent 7 kt del Est/Nord-Est

TAF: RJFM 230217Z 2302/2406 28010KT 9999 FEW030 TEMPO 2304/2310 28018G28KT BECMG 2400/2403 06007KT

Observacions i pronòstics meteorològics de més de 4000 aeroports (METAR i TAF).

Les estacions disponibles són els punts grocs i vermells al mapa.

Posi el ratolí al punt desitjat per veure el nom de l'estació.

Feu clic per veure les observacions i els pronòstics meteorològics.

Per canviar el mapa: feu clic els botons verds amb una creu de color negre per apropar; al botó verd amb un guió per allunyar la imatge; o en les fletxes verdes per a mapes adjacents.


METAR-TAF: